Kyoto, Japan

11:20 AM JST on May 23, 2017 (GMT +0900)
Southeast Portland | | Change Station

Elev 164 ft 35.02 °N, 135.72 °E | Updated 6 minutes ago

Clear
Clear
76.1 °F
Feels Like 78 °F
N
1.9
Wind Variable Wind from West
Gusts 4.3 mph

Today
High -- | Low -- °F
--% Chance of Precip.
Yesterday
High -- | Low -- °F
Precip. -- in
Pressure 29.89 in
Visibility 6.2 miles
Clouds Few 3000 ft
Scattered Clouds 4000 ft
Heat Index 78 °F
Dew Point 63 °F
Humidity 63%
Rainfall 0.00 in
Snow Depth Not available.
4:48 AM 6:59 PM
Waning Crescent, 11% visible
METAR RJOO 230200Z VRB04KT 9999 FEW030 SCT040 26/12 Q1012 RMK 1CU030 3CU040 A2990
Pressure 29.89 in
Visibility 6.2 miles
Clouds Few 3000 ft
Scattered Clouds 4000 ft
Heat Index 78 °F
Dew Point 63 °F
Humidity 63%
Rainfall 0.00 in
Snow Depth Not available.
4:48 AM 6:59 PM
Waning Crescent, 11% visible
METAR RJOO 230200Z VRB04KT 9999 FEW030 SCT040 26/12 Q1012 RMK 1CU030 3CU040 A2990

Get Severe Weather Alerts

Thanks for signing up!

Be on the lookout for a verification email in your inbox.

You'll start receiving the daily forecast at 6 AM.

×

10-Day Weather Forecast

No radar image for this location.
×

Almanac

Astronomy

May. 23, 2017 Rise Set
Actual Time
Civil Twilight
Nautical Twilight
Astronomical Twilight
Moon
Length of Visible Light
Length of Day
Tomorrow will be .
, % of the Moon is Illuminated

Today's Extremes

Country Highs Country Lows

Community

WunderPhotos

Category 6

Welcome to Category 6. This is the collective home for Weather Underground's featured writeups by Dr. Jeff Masters (right), Bob Henson (left), Chris Burt, and other regular contributors.

Nearby

Air Quality

  Air Quality AQ Index Pollutant
Not available.

Snow Depth

Station Depth Elevation

Earthquake Activity

City Distance Mag. Time & Date
Minimum magnitude displayed is 2.5.

Coastal Water Temperatures

Place Temperature

Stations

Nearby Weather Stations

Station Location Temp. Windchill Dew Point Humidity Wind Precip. Elev Updated Type